Terminal Aerodrome Forecast
Issued by NWS North Platte, NE

Home | Current Version | Previous Version | Text Only | Print | Product List | Glossary Off
Versions: 1 2 3 4 5 6 7 8 9 10 11 12 13 14

923
FTUS43 KLBF 250520
TAFVTN
TAF
KVTN 250520Z 2506/2606 27018G25KT P6SM FEW050
     FM250800 28019G25KT P6SM BKN050
     FM251400 31023G32KT P6SM FEW050
     FM251800 32025G33KT P6SM SKC
     FM260100 30011KT P6SM SKC=

USA.gov is the U.S. government's official web portal to all federal, state and local government web resources and services.